Time;durP1;ratioP1;P1;durP2;ratioP2;P2;SDS_P1;SDS_P2;PMS_P1;PMS_P2;Temp;Humidity;BMP_temperature;BMP_pressure;BME280_temperature;BME280_humidity;BME280_pressure;Samples;Min_cycle;Max_cycle;Signal;HPM_P1;HPM_P2
2022/01/17 00:00:48;;;;;;;22.05;3.40;;;5.60;99.90;;;;;;5047967;28;20495;-67
2022/01/17 00:03:14;;;;;;;23.05;2.92;;;5.60;99.90;;;;;;5050820;28;20530;-67
2022/01/17 00:05:40;;;;;;;21.58;3.20;;;5.70;99.90;;;;;;5049803;28;20387;-68
2022/01/17 00:08:05;;;;;;;21.77;2.80;;;5.50;99.90;;;;;;5050620;28;20494;-68
2022/01/17 00:10:31;;;;;;;21.45;2.75;;;5.50;99.90;;;;;;5052447;28;20424;-68
2022/01/17 00:12:58;;;;;;;17.23;2.92;;;5.60;99.90;;;;;;5044185;28;20052;-68
2022/01/17 00:15:32;;;;;;;20.25;2.90;;;5.50;99.90;;;;;;5063062;28;20045;-68
2022/01/17 00:20:39;;;;;;;22.20;3.25;;;5.60;99.90;;;;;;5046736;28;20393;-68
2022/01/17 00:23:05;;;;;;;14.43;2.60;;;5.60;99.90;;;;;;5046309;28;20048;-67
2022/01/17 00:25:32;;;;;;;13.20;2.67;;;5.60;99.90;;;;;;5049932;28;20033;-67
2022/01/17 00:27:57;;;;;;;21.73;2.90;;;5.60;99.90;;;;;;5052032;28;20045;-68
2022/01/17 00:30:23;;;;;;;29.95;3.80;;;5.60;99.90;;;;;;5049023;28;20052;-67
2022/01/17 00:32:48;;;;;;;19.27;3.30;;;5.60;99.90;;;;;;5050815;28;20060;-68
2022/01/17 00:35:15;;;;;;;19.23;2.78;;;5.60;99.90;;;;;;5050134;28;20059;-68
2022/01/17 00:37:41;;;;;;;17.67;3.60;;;5.60;99.90;;;;;;5051283;28;20052;-67
2022/01/17 00:40:08;;;;;;;20.00;3.13;;;5.60;99.90;;;;;;5050138;28;20056;-66
2022/01/17 00:42:34;;;;;;;17.92;2.75;;;5.60;99.90;;;;;;5051816;28;20087;-66
2022/01/17 00:45:02;;;;;;;18.73;2.88;;;5.50;99.90;;;;;;5048473;28;20040;-67
2022/01/17 00:47:28;;;;;;;24.50;3.10;;;5.50;99.90;;;;;;5043947;28;20051;-67
2022/01/17 00:49:54;;;;;;;21.08;3.22;;;5.40;99.90;;;;;;5049637;28;20041;-66
2022/01/17 00:52:19;;;;;;;18.88;3.08;;;5.40;99.90;;;;;;5030592;28;20049;-66
2022/01/17 00:54:45;;;;;;;26.58;3.50;;;5.30;99.90;;;;;;5046595;28;20057;-67
2022/01/17 00:57:11;;;;;;;18.98;3.22;;;5.30;99.90;;;;;;5050216;28;20128;-67
2022/01/17 00:59:37;;;;;;;18.75;3.28;;;5.30;99.90;;;;;;5050146;28;20123;-67
2022/01/17 01:02:02;;;;;;;20.70;3.30;;;5.20;99.90;;;;;;5047540;28;20045;-66
2022/01/17 01:04:28;;;;;;;16.85;3.13;;;5.20;99.90;;;;;;5049260;28;20499;-66
2022/01/17 01:06:54;;;;;;;26.67;3.78;;;5.20;99.90;;;;;;5048746;28;20388;-66
2022/01/17 01:09:20;;;;;;;18.35;2.78;;;5.20;99.90;;;;;;5051968;28;20422;-67
2022/01/17 01:11:45;;;;;;;29.52;3.72;;;5.20;99.90;;;;;;5049769;28;20033;-66
2022/01/17 01:14:11;;;;;;;18.75;2.85;;;5.10;99.90;;;;;;5033411;28;20378;-67
2022/01/17 01:16:37;;;;;;;18.90;2.90;;;5.20;99.90;;;;;;5050772;28;20094;-67
2022/01/17 01:19:27;;;;;;;20.05;3.15;;;5.10;99.90;;;;;;5050718;28;20056;-67
2022/01/17 01:29:46;;;;;;;24.17;2.70;;;5.30;99.90;;;;;;5049728;28;20075;-67
2022/01/17 01:32:14;;;;;;;21.42;3.33;;;5.20;99.90;;;;;;5049696;28;20131;-67
2022/01/17 01:34:45;;;;;;;17.30;2.95;;;5.20;99.90;;;;;;5050120;28;20458;-65
2022/01/17 01:37:12;;;;;;;18.10;2.92;;;5.20;99.90;;;;;;5050599;28;20083;-67
2022/01/17 01:39:38;;;;;;;19.30;2.80;;;5.50;99.90;;;;;;5049508;28;20506;-66
2022/01/17 01:42:05;;;;;;;18.55;3.35;;;5.30;99.90;;;;;;5049191;28;20468;-66
2022/01/17 01:44:31;;;;;;;25.63;3.15;;;5.30;99.90;;;;;;5050080;28;20059;-67
2022/01/17 01:46:57;;;;;;;22.05;3.17;;;5.20;99.90;;;;;;5050704;28;20037;-67
2022/01/17 01:49:25;;;;;;;18.73;3.60;;;5.20;99.90;;;;;;5044262;28;20095;-67
2022/01/17 01:51:51;;;;;;;21.67;3.70;;;5.20;99.90;;;;;;5047244;28;20055;-67
2022/01/17 01:54:18;;;;;;;20.88;3.35;;;5.20;99.90;;;;;;5048647;28;20048;-68
2022/01/17 01:56:46;;;;;;;23.27;3.80;;;5.20;99.90;;;;;;5050110;28;20045;-67
2022/01/17 01:59:13;;;;;;;19.98;3.45;;;5.10;99.90;;;;;;5045816;28;20045;-68
2022/01/17 02:01:39;;;;;;;19.03;2.90;;;5.20;99.90;;;;;;5046367;28;20128;-66
2022/01/17 02:04:06;;;;;;;14.40;2.20;;;5.20;99.90;;;;;;5051207;28;20044;-67
2022/01/17 02:06:35;;;;;;;22.13;3.38;;;5.20;99.90;;;;;;5048331;28;20741;-67
2022/01/17 02:09:03;;;;;;;22.30;3.25;;;5.10;99.90;;;;;;5048787;28;20033;-67
2022/01/17 02:11:28;;;;;;;24.27;3.47;;;5.10;99.90;;;;;;5047712;28;20049;-67
2022/01/17 02:13:54;;;;;;;23.77;3.65;;;5.10;99.90;;;;;;5049532;28;20098;-67
2022/01/17 02:16:22;;;;;;;20.77;3.50;;;5.10;99.90;;;;;;5047720;28;20124;-66
2022/01/17 02:18:49;;;;;;;22.75;3.67;;;5.10;99.90;;;;;;5049121;28;20044;-66
2022/01/17 02:23:47;;;;;;;28.83;4.05;;;5.00;99.90;;;;;;5049782;28;20041;-67
2022/01/17 02:26:15;;;;;;;20.83;2.67;;;5.00;99.90;;;;;;5049269;28;20134;-67
2022/01/17 02:28:46;;;;;;;36.70;4.07;;;5.00;99.90;;;;;;5048653;28;20510;-66
2022/01/17 02:31:12;;;;;;;23.75;4.43;;;5.00;99.90;;;;;;5044632;28;20048;-66
2022/01/17 02:33:37;;;;;;;20.77;3.40;;;4.90;99.90;;;;;;5048844;28;20140;-66
2022/01/17 02:36:04;;;;;;;33.00;3.88;;;4.90;99.90;;;;;;5049757;28;20360;-68
2022/01/17 02:38:29;;;;;;;19.90;3.28;;;4.90;99.90;;;;;;5050025;28;20045;-67
2022/01/17 02:40:55;;;;;;;19.02;2.70;;;5.00;99.90;;;;;;5047953;28;20108;-68
2022/01/17 02:43:23;;;;;;;21.10;3.83;;;5.00;99.90;;;;;;5048884;28;20040;-67
2022/01/17 02:48:20;;;;;;;24.15;3.40;;;5.10;99.90;;;;;;5053287;28;20045;-68
2022/01/17 02:50:47;;;;;;;24.25;2.97;;;5.10;99.90;;;;;;5048429;28;20045;-67
2022/01/17 02:53:12;;;;;;;30.70;3.53;;;5.10;99.90;;;;;;5051050;28;20044;-67
2022/01/17 02:55:42;;;;;;;33.20;4.55;;;5.10;99.90;;;;;;5052877;28;20090;-68
2022/01/17 02:58:08;;;;;;;22.15;3.40;;;5.20;99.90;;;;;;5052215;28;20041;-68
2022/01/17 03:00:34;;;;;;;28.67;3.65;;;5.20;99.90;;;;;;5050791;28;20037;-69
2022/01/17 03:02:59;;;;;;;30.02;3.70;;;5.20;99.90;;;;;;5051191;28;20048;-69
2022/01/17 03:05:25;;;;;;;20.52;3.63;;;5.20;99.90;;;;;;5048284;28;20033;-68
2022/01/17 03:07:52;;;;;;;27.58;4.35;;;5.20;99.90;;;;;;5051149;28;20037;-67
2022/01/17 03:10:32;;;;;;;20.50;2.92;;;5.20;99.90;;;;;;5051402;28;20051;-67
2022/01/17 03:13:06;;;;;;;34.85;4.70;;;5.20;99.90;;;;;;5045540;28;20701;-67
2022/01/17 03:15:32;;;;;;;20.00;3.25;;;5.30;99.90;;;;;;5050308;28;20094;-67
2022/01/17 03:17:58;;;;;;;34.05;4.28;;;5.30;99.90;;;;;;5049723;28;20238;-68
2022/01/17 03:20:24;;;;;;;21.35;3.03;;;5.30;99.90;;;;;;5047367;28;20545;-68
2022/01/17 03:22:49;;;;;;;25.15;3.83;;;5.30;99.90;;;;;;5050675;28;20072;-67
2022/01/17 03:25:15;;;;;;;22.45;3.70;;;5.30;99.90;;;;;;5052930;28;20041;-68
2022/01/17 03:27:41;;;;;;;24.55;3.45;;;5.30;99.90;;;;;;5033025;28;20489;-67
2022/01/17 03:30:07;;;;;;;16.73;3.28;;;5.30;99.90;;;;;;5048692;28;20049;-68
2022/01/17 03:32:33;;;;;;;17.30;3.20;;;5.40;99.90;;;;;;5050254;28;20052;-69
2022/01/17 03:34:59;;;;;;;19.85;2.60;;;5.40;99.90;;;;;;5053553;28;20041;-68
2022/01/17 03:37:24;;;;;;;18.23;2.97;;;5.40;99.90;;;;;;5052158;28;20116;-66
2022/01/17 03:39:50;;;;;;;19.75;3.03;;;5.40;99.90;;;;;;5067240;28;20407;-67
2022/01/17 03:42:18;;;;;;;21.63;3.35;;;5.40;99.90;;;;;;5049489;28;20120;-66
2022/01/17 03:44:44;;;;;;;16.52;2.55;;;5.40;99.90;;;;;;5052378;28;20041;-66
2022/01/17 03:47:10;;;;;;;20.77;2.72;;;5.40;99.90;;;;;;5052454;28;20045;-66
2022/01/17 03:49:36;;;;;;;21.20;3.05;;;5.60;99.90;;;;;;5032984;28;20379;-65
2022/01/17 03:52:02;;;;;;;22.60;3.60;;;5.50;99.90;;;;;;5049471;28;20078;-66
2022/01/17 03:54:28;;;;;;;17.05;3.08;;;5.50;99.90;;;;;;5041738;28;20046;-67
2022/01/17 03:56:54;;;;;;;17.45;2.70;;;5.50;99.90;;;;;;5047953;28;20060;-67
2022/01/17 03:59:19;;;;;;;21.88;3.20;;;5.50;99.90;;;;;;5049608;28;20087;-67
2022/01/17 04:01:45;;;;;;;16.95;2.90;;;5.50;99.90;;;;;;5052197;28;20439;-68
2022/01/17 04:04:11;;;;;;;24.63;3.15;;;5.40;99.90;;;;;;5051657;28;20056;-67
2022/01/17 04:06:36;;;;;;;24.70;3.28;;;5.50;99.90;;;;;;5052798;28;20044;-67
2022/01/17 04:09:02;;;;;;;25.52;4.18;;;5.50;99.90;;;;;;5051942;28;20079;-66
2022/01/17 04:11:28;;;;;;;20.17;3.35;;;5.50;99.90;;;;;;5052525;28;20072;-67
2022/01/17 04:13:53;;;;;;;22.15;4.28;;;5.50;99.90;;;;;;5051491;28;20040;-66
2022/01/17 04:16:19;;;;;;;17.95;2.70;;;5.50;99.90;;;;;;5051117;28;20477;-66
2022/01/17 04:18:45;;;;;;;15.48;3.25;;;5.50;99.90;;;;;;5049010;28;20087;-67
2022/01/17 04:21:11;;;;;;;21.50;3.28;;;5.50;99.90;;;;;;5064734;28;20060;-67
2022/01/17 04:23:36;;;;;;;16.75;2.90;;;5.60;99.90;;;;;;5050626;28;20068;-66
2022/01/17 04:26:02;;;;;;;16.25;2.90;;;5.60;99.90;;;;;;5050331;28;20041;-67
2022/01/17 04:28:28;;;;;;;20.13;2.72;;;5.60;99.90;;;;;;5050813;28;20380;-68
2022/01/17 04:30:53;;;;;;;19.60;2.83;;;5.60;99.90;;;;;;5050921;28;20135;-67
2022/01/17 04:33:19;;;;;;;20.55;3.63;;;5.70;99.90;;;;;;5050677;28;20128;-67
2022/01/17 04:35:45;;;;;;;23.05;3.00;;;5.70;99.90;;;;;;5050433;28;20491;-67
2022/01/17 04:38:17;;;;;;;22.90;2.85;;;5.70;99.90;;;;;;5050319;28;20375;-68
2022/01/17 04:40:47;;;;;;;21.95;3.42;;;5.70;99.90;;;;;;5032550;28;20041;-67
2022/01/17 04:43:43;;;;;;;25.58;3.47;;;5.80;99.90;;;;;;5049852;28;20112;-66
2022/01/17 04:46:10;;;;;;;30.55;3.80;;;5.80;99.90;;;;;;5051738;28;20226;-66
2022/01/17 04:48:36;;;;;;;23.98;3.92;;;5.80;99.90;;;;;;5049614;28;20383;-65
2022/01/17 04:51:03;;;;;;;22.60;2.85;;;5.80;99.90;;;;;;5048910;28;20044;-67
2022/01/17 04:53:30;;;;;;;25.35;3.92;;;5.80;99.90;;;;;;5049239;28;20450;-66
2022/01/17 04:55:56;;;;;;;23.08;3.58;;;5.80;99.90;;;;;;5049197;28;20497;-66
2022/01/17 04:58:22;;;;;;;20.20;4.35;;;5.90;99.90;;;;;;5029292;28;20124;-66
2022/01/17 05:00:48;;;;;;;24.25;3.25;;;5.90;99.90;;;;;;5047683;28;20037;-67
2022/01/17 05:03:24;;;;;;;29.88;3.45;;;5.90;99.90;;;;;;5044320;28;20046;-67
2022/01/17 05:05:50;;;;;;;29.90;4.43;;;6.00;99.90;;;;;;5048005;28;20068;-67
2022/01/17 05:08:17;;;;;;;21.10;3.80;;;6.00;99.90;;;;;;5047691;28;20056;-67
2022/01/17 05:10:46;;;;;;;27.27;3.88;;;6.00;99.90;;;;;;5051438;28;20131;-67
2022/01/17 05:13:18;;;;;;;29.75;3.53;;;6.00;99.90;;;;;;5049677;28;20055;-67
2022/01/17 05:15:50;;;;;;;30.17;3.75;;;6.00;99.90;;;;;;5051512;28;20040;-66
2022/01/17 05:19:48;;;;;;;19.52;3.95;;;6.00;99.90;;;;;;5030461;28;20044;-67
2022/01/17 05:21:12;;;;;;;24.70;4.75;;;6.00;99.90;;;;;;5050237;28;20052;-67
2022/01/17 05:23:40;;;;;;;18.35;3.20;;;6.40;99.90;;;;;;5047828;28;20083;-67
2022/01/17 05:26:06;;;;;;;27.15;4.00;;;6.10;99.90;;;;;;5053908;28;20097;-68
2022/01/17 05:28:32;;;;;;;20.60;3.45;;;6.10;99.90;;;;;;5049481;28;20132;-66
2022/01/17 05:30:57;;;;;;;24.48;3.90;;;6.10;99.90;;;;;;5049674;28;20138;-66
2022/01/17 05:33:23;;;;;;;28.05;4.32;;;6.10;99.90;;;;;;5047941;28;20048;-67
2022/01/17 05:35:48;;;;;;;17.55;3.95;;;6.10;99.90;;;;;;5047807;28;20174;-66
2022/01/17 05:38:14;;;;;;;25.02;3.65;;;6.10;99.90;;;;;;5048082;28;20136;-68
2022/01/17 05:40:40;;;;;;;21.00;3.60;;;6.10;99.90;;;;;;5048153;28;20069;-67
2022/01/17 05:43:05;;;;;;;31.30;4.72;;;6.10;99.90;;;;;;5048677;28;20102;-66
2022/01/17 05:45:32;;;;;;;30.48;4.38;;;6.10;99.90;;;;;;5047643;28;20072;-66
2022/01/17 05:47:58;;;;;;;26.52;4.68;;;6.20;99.90;;;;;;5049438;28;20045;-66
2022/01/17 05:50:23;;;;;;;22.30;4.80;;;6.10;99.90;;;;;;5048632;28;20048;-66
2022/01/17 05:52:49;;;;;;;20.75;4.47;;;6.10;99.90;;;;;;5047225;28;20140;-67
2022/01/17 05:55:16;;;;;;;24.75;4.68;;;6.20;99.90;;;;;;5049625;28;20048;-67
2022/01/17 05:57:42;;;;;;;30.20;4.65;;;6.20;99.90;;;;;;5047105;28;20127;-66
2022/01/17 06:00:13;;;;;;;29.75;4.43;;;6.20;99.90;;;;;;5049431;28;20438;-66
2022/01/17 06:02:39;;;;;;;34.42;5.57;;;6.20;99.90;;;;;;5030513;28;20056;-66
2022/01/17 06:05:05;;;;;;;19.45;4.45;;;6.20;99.90;;;;;;5048732;28;20045;-67
2022/01/17 06:07:31;;;;;;;23.17;3.90;;;6.20;99.90;;;;;;5047669;28;20499;-67
2022/01/17 06:09:56;;;;;;;26.30;5.65;;;6.20;99.90;;;;;;5047674;28;20045;-66
2022/01/17 06:12:22;;;;;;;26.67;4.40;;;6.30;99.90;;;;;;5048299;28;20550;-67
2022/01/17 06:14:48;;;;;;;27.65;5.38;;;6.30;99.90;;;;;;5047439;28;20037;-67
2022/01/17 06:17:13;;;;;;;27.02;4.72;;;6.40;99.90;;;;;;5063512;28;20426;-68
2022/01/17 06:19:39;;;;;;;28.45;4.55;;;6.20;99.90;;;;;;5053357;28;20048;-66
2022/01/17 06:22:07;;;;;;;29.15;4.78;;;6.20;99.90;;;;;;5051225;28;20088;-67
2022/01/17 06:24:33;;;;;;;32.47;5.40;;;6.20;99.90;;;;;;5046776;28;20216;-67
2022/01/17 06:26:59;;;;;;;30.40;5.35;;;6.20;99.90;;;;;;5050591;28;20422;-68
2022/01/17 06:29:24;;;;;;;25.17;4.78;;;6.20;99.90;;;;;;5068564;28;20144;-67
2022/01/17 06:31:50;;;;;;;27.90;4.75;;;6.20;99.90;;;;;;5047616;28;20475;-68
2022/01/17 06:34:16;;;;;;;34.03;5.45;;;6.20;99.90;;;;;;5053521;28;20041;-67
2022/01/17 06:36:42;;;;;;;25.55;4.22;;;6.20;99.90;;;;;;5046130;28;20049;-67
2022/01/17 06:39:09;;;;;;;18.38;3.90;;;6.20;99.90;;;;;;5050474;28;20120;-67
2022/01/17 06:41:35;;;;;;;38.22;4.93;;;6.20;99.90;;;;;;5051138;28;20060;-68
2022/01/17 06:44:00;;;;;;;30.85;5.22;;;6.20;99.90;;;;;;5049533;28;20109;-68
2022/01/17 06:46:26;;;;;;;35.72;5.18;;;6.20;99.90;;;;;;5050574;28;20124;-68
2022/01/17 06:48:52;;;;;;;37.25;4.30;;;6.20;99.90;;;;;;5048226;28;20092;-68
2022/01/17 06:51:18;;;;;;;32.40;4.53;;;6.20;99.90;;;;;;5047598;28;20052;-66
2022/01/17 06:53:44;;;;;;;29.17;4.30;;;6.20;99.90;;;;;;5060761;28;20082;-67
2022/01/17 06:56:10;;;;;;;30.40;4.55;;;6.20;99.90;;;;;;5052324;28;20050;-67
2022/01/17 06:58:37;;;;;;;38.33;5.45;;;6.20;99.90;;;;;;5052867;28;20047;-67
2022/01/17 07:01:04;;;;;;;28.08;5.18;;;6.20;99.90;;;;;;5049811;28;20045;-68
2022/01/17 07:03:30;;;;;;;43.00;5.10;;;6.20;99.90;;;;;;5049432;28;20167;-66
2022/01/17 07:05:56;;;;;;;32.92;5.40;;;6.20;99.90;;;;;;5052363;28;20040;-64
2022/01/17 07:08:22;;;;;;;33.17;5.20;;;6.30;99.90;;;;;;5052862;28;20045;-64
2022/01/17 07:10:47;;;;;;;36.15;4.53;;;6.30;99.90;;;;;;5053109;28;20041;-65
2022/01/17 07:13:13;;;;;;;31.80;5.10;;;6.30;99.90;;;;;;5053165;28;20187;-65
2022/01/17 07:15:39;;;;;;;31.95;4.55;;;6.30;99.90;;;;;;5053658;28;20048;-66
2022/01/17 07:18:06;;;;;;;26.88;4.35;;;6.30;99.90;;;;;;5051817;28;20462;-65
2022/01/17 07:20:32;;;;;;;33.05;5.78;;;6.40;99.90;;;;;;5040515;28;20191;-68
2022/01/17 07:22:57;;;;;;;36.85;4.80;;;6.30;99.90;;;;;;5054203;28;20044;-64
2022/01/17 07:25:23;;;;;;;27.35;5.32;;;6.40;99.90;;;;;;5052575;28;20033;-65
2022/01/17 07:27:49;;;;;;;26.00;4.20;;;6.50;99.90;;;;;;5048979;28;20071;-65
2022/01/17 07:30:14;;;;;;;34.78;5.82;;;6.50;99.90;;;;;;5050836;28;20494;-65
2022/01/17 07:32:40;;;;;;;38.25;6.18;;;6.50;99.90;;;;;;5050886;28;20098;-65
2022/01/17 07:35:07;;;;;;;34.65;4.95;;;6.50;99.90;;;;;;5053566;28;20124;-65
2022/01/17 07:37:33;;;;;;;28.90;5.50;;;6.60;99.90;;;;;;5047772;28;20407;-65
2022/01/17 07:39:59;;;;;;;39.00;5.43;;;6.70;99.90;;;;;;5052110;28;20046;-65
2022/01/17 07:42:25;;;;;;;42.10;5.68;;;6.70;99.90;;;;;;5050752;28;20095;-64
2022/01/17 07:44:55;;;;;;;41.72;5.20;;;7.10;99.90;;;;;;5050100;28;20093;-65
2022/01/17 07:47:38;;;;;;;38.30;4.65;;;6.70;99.90;;;;;;5052548;28;20406;-66
2022/01/17 07:50:06;;;;;;;35.53;5.40;;;6.70;99.90;;;;;;5052761;28;20049;-65
2022/01/17 07:52:32;;;;;;;25.98;5.03;;;6.70;99.90;;;;;;5053069;28;20053;-64
2022/01/17 07:54:58;;;;;;;47.05;6.05;;;6.80;99.90;;;;;;5052678;28;20506;-64
2022/01/17 07:57:23;;;;;;;35.45;5.03;;;6.90;99.90;;;;;;5051435;28;20479;-64
2022/01/17 07:59:49;;;;;;;29.85;6.00;;;6.80;99.90;;;;;;5051676;28;20045;-64
2022/01/17 08:02:15;;;;;;;49.00;6.47;;;6.90;99.90;;;;;;5052506;28;20048;-65
2022/01/17 08:04:40;;;;;;;33.08;5.10;;;6.90;99.90;;;;;;5051362;28;20148;-65
2022/01/17 08:07:07;;;;;;;41.45;5.55;;;6.90;99.90;;;;;;5052608;28;20436;-65
2022/01/17 08:09:34;;;;;;;37.17;6.70;;;6.90;99.90;;;;;;5053192;28;20119;-67
2022/01/17 08:12:01;;;;;;;36.92;6.45;;;7.00;99.90;;;;;;5050023;28;20075;-64
2022/01/17 08:14:27;;;;;;;35.60;5.60;;;7.00;99.90;;;;;;5052753;28;20045;-64
2022/01/17 08:16:54;;;;;;;30.65;5.32;;;7.00;99.90;;;;;;5051150;28;20045;-64
2022/01/17 08:19:23;;;;;;;46.58;5.18;;;7.10;99.90;;;;;;5052664;28;20061;-65
2022/01/17 08:21:51;;;;;;;39.25;6.28;;;7.10;99.90;;;;;;5050441;28;20059;-65
2022/01/17 08:24:18;;;;;;;29.30;5.47;;;7.10;99.90;;;;;;5052351;28;20167;-66
2022/01/17 08:26:44;;;;;;;34.92;5.47;;;7.20;99.90;;;;;;5047631;28;20045;-66
2022/01/17 08:29:13;;;;;;;24.58;5.43;;;7.20;99.90;;;;;;5050823;28;20055;-65
2022/01/17 08:31:39;;;;;;;47.10;6.88;;;7.20;99.90;;;;;;5048175;28;20514;-65
2022/01/17 08:34:05;;;;;;;37.13;5.32;;;7.20;99.90;;;;;;5052871;28;20120;-65
2022/01/17 08:36:31;;;;;;;39.05;5.88;;;7.20;99.90;;;;;;5051540;28;20133;-67
2022/01/17 08:38:57;;;;;;;38.05;5.90;;;7.30;99.90;;;;;;5051862;28;20033;-67
2022/01/17 08:41:23;;;;;;;39.75;5.90;;;7.30;99.90;;;;;;5050470;28;20052;-66
2022/01/17 08:43:49;;;;;;;40.17;6.47;;;7.30;99.90;;;;;;5050501;28;20061;-66
2022/01/17 08:46:15;;;;;;;34.95;5.10;;;7.30;99.90;;;;;;5050626;28;20123;-66
2022/01/17 08:48:42;;;;;;;39.75;5.75;;;7.40;99.90;;;;;;5052344;28;20049;-65
2022/01/17 08:51:08;;;;;;;40.85;6.13;;;7.40;99.90;;;;;;5046565;28;20045;-65
2022/01/17 08:53:34;;;;;;;39.45;6.05;;;7.50;99.90;;;;;;5048851;28;20461;-68
2022/01/17 08:56:00;;;;;;;23.63;5.47;;;7.50;99.90;;;;;;5049135;28;20486;-65
2022/01/17 08:58:25;;;;;;;39.58;4.88;;;7.60;99.90;;;;;;5052205;28;20136;-65
2022/01/17 09:00:51;;;;;;;48.25;6.57;;;7.60;99.90;;;;;;5044325;28;20065;-65
2022/01/17 09:03:19;;;;;;;48.08;6.57;;;7.60;99.90;;;;;;5051017;28;20045;-65
2022/01/17 09:05:45;;;;;;;37.72;5.30;;;7.80;99.90;;;;;;5051243;28;20048;-65
2022/01/17 09:08:11;;;;;;;43.58;6.00;;;7.80;99.90;;;;;;5049590;28;20529;-65
2022/01/17 09:10:38;;;;;;;43.20;5.75;;;7.90;99.90;;;;;;5050001;28;20041;-64
2022/01/17 09:13:04;;;;;;;53.08;7.13;;;7.90;99.90;;;;;;5051885;28;20045;-66
2022/01/17 09:15:30;;;;;;;38.63;5.95;;;8.00;99.90;;;;;;5033429;28;20467;-65
2022/01/17 09:17:56;;;;;;;47.53;7.28;;;8.00;99.90;;;;;;5051635;28;20048;-66
2022/01/17 09:20:22;;;;;;;45.15;7.43;;;8.00;99.90;;;;;;5050803;28;20037;-65
2022/01/17 09:22:48;;;;;;;45.92;6.38;;;8.00;99.90;;;;;;5044043;28;20044;-66
2022/01/17 09:25:14;;;;;;;36.38;5.93;;;8.00;99.90;;;;;;5029056;28;20102;-66
2022/01/17 09:27:41;;;;;;;38.83;6.28;;;8.10;99.90;;;;;;5049477;28;20120;-66
2022/01/17 09:30:10;;;;;;;49.05;6.32;;;8.10;99.90;;;;;;5049296;28;20443;-65
2022/01/17 09:32:36;;;;;;;40.20;6.38;;;8.10;99.90;;;;;;5051145;28;20041;-65
2022/01/17 09:35:03;;;;;;;50.42;6.57;;;8.10;99.90;;;;;;5050118;28;20053;-65
2022/01/17 09:37:29;;;;;;;36.35;5.75;;;8.20;99.90;;;;;;5052263;28;20060;-65
2022/01/17 09:39:54;;;;;;;41.90;7.35;;;8.10;99.90;;;;;;5048495;28;20047;-64
2022/01/17 09:42:20;;;;;;;50.75;7.18;;;8.20;99.90;;;;;;5051546;28;20044;-64
2022/01/17 09:44:46;;;;;;;46.90;7.40;;;8.20;99.90;;;;;;5050761;28;20040;-66
2022/01/17 09:47:13;;;;;;;46.22;8.55;;;8.30;99.90;;;;;;5050501;28;20051;-67
2022/01/17 09:49:53;;;;;;;55.97;7.63;;;8.30;99.90;;;;;;5051016;28;20045;-65
2022/01/17 09:52:35;;;;;;;47.85;6.47;;;8.30;99.90;;;;;;5051720;28;20067;-65
2022/01/17 09:55:10;;;;;;;52.22;7.50;;;8.30;99.90;;;;;;5050141;28;20041;-63
2022/01/17 09:57:45;;;;;;;48.20;7.28;;;8.40;99.90;;;;;;5051968;28;20045;-64
2022/01/17 10:00:14;;;;;;;45.25;6.22;;;8.40;99.90;;;;;;5048762;28;20045;-65
2022/01/17 10:02:40;;;;;;;45.40;6.03;;;8.50;99.90;;;;;;5047894;28;20048;-65
2022/01/17 10:05:08;;;;;;;46.40;7.95;;;8.50;99.90;;;;;;5051249;28;20491;-66
2022/01/17 10:07:54;;;;;;;58.92;6.50;;;8.50;99.90;;;;;;5051731;28;20483;-65
2022/01/17 10:10:45;;;;;;;50.33;7.80;;;8.60;99.90;;;;;;5036637;28;20422;-66
2022/01/17 10:13:12;;;;;;;49.30;7.03;;;8.60;99.90;;;;;;5044443;28;20075;-67
2022/01/17 10:15:49;;;;;;;41.30;7.60;;;8.50;99.90;;;;;;5049452;28;20041;-67
2022/01/17 10:18:40;;;;;;;51.60;7.45;;;8.60;99.90;;;;;;5042680;28;20288;-65
2022/01/17 10:21:17;;;;;;;48.72;7.00;;;8.60;99.90;;;;;;5049298;28;20411;-66
2022/01/17 10:37:15;;;;;;;48.60;8.07;;;8.80;99.90;;;;;;5044950;28;20052;-65
2022/01/17 10:40:03;;;;;;;52.45;7.68;;;8.80;99.90;;;;;;5048484;28;20348;-66
2022/01/17 10:42:42;;;;;;;44.15;7.30;;;8.80;99.90;;;;;;5049392;28;20041;-65
2022/01/17 10:45:14;;;;;;;61.10;7.57;;;8.80;99.90;;;;;;5046458;28;20041;-65
2022/01/17 10:47:43;;;;;;;57.95;8.57;;;8.90;99.90;;;;;;5050211;28;20037;-66
2022/01/17 10:50:19;;;;;;;66.65;8.02;;;8.90;99.90;;;;;;5045587;28;20509;-66
2022/01/17 10:52:53;;;;;;;48.47;8.13;;;9.00;99.90;;;;;;5049656;28;20040;-65
2022/01/17 10:55:30;;;;;;;47.08;8.35;;;8.90;99.90;;;;;;5032170;28;20089;-65
2022/01/17 10:58:05;;;;;;;63.03;8.20;;;8.90;99.90;;;;;;5049066;28;20037;-65
2022/01/17 11:00:42;;;;;;;47.45;8.52;;;8.90;99.90;;;;;;5049961;28;20059;-65
2022/01/17 11:03:11;;;;;;;54.92;7.78;;;8.90;99.90;;;;;;5043332;28;20108;-66
2022/01/17 11:05:42;;;;;;;50.63;8.68;;;9.00;99.90;;;;;;5050868;28;20041;-65
2022/01/17 11:08:09;;;;;;;57.35;8.38;;;9.00;99.90;;;;;;5050084;28;20045;-65
2022/01/17 11:10:41;;;;;;;60.17;9.23;;;9.10;99.90;;;;;;5049593;28;20038;-65
2022/01/17 11:13:09;;;;;;;57.20;8.43;;;9.00;99.90;;;;;;5053151;28;20483;-65
2022/01/17 11:15:37;;;;;;;43.20;5.72;;;9.00;99.90;;;;;;5053393;28;20045;-66
2022/01/17 11:18:11;;;;;;;46.78;7.93;;;9.10;99.90;;;;;;5054439;28;20064;-65
2022/01/17 11:20:37;;;;;;;59.67;8.10;;;9.10;99.90;;;;;;5053363;28;20048;-66
2022/01/17 11:23:03;;;;;;;56.85;8.60;;;9.10;99.90;;;;;;5052988;28;20120;-65
2022/01/17 11:25:35;;;;;;;52.05;7.10;;;9.10;99.90;;;;;;5053751;28;20036;-66
2022/01/17 11:28:03;;;;;;;69.10;9.85;;;9.10;99.90;;;;;;5046498;28;20454;-66
2022/01/17 11:30:31;;;;;;;48.50;8.85;;;9.10;99.90;;;;;;5052876;28;20049;-65
2022/01/17 11:32:58;;;;;;;66.40;8.73;;;9.10;99.90;;;;;;5050931;28;20044;-66
2022/01/17 11:35:25;;;;;;;57.50;8.23;;;9.10;99.90;;;;;;5054675;28;20067;-66
2022/01/17 11:37:56;;;;;;;55.17;8.57;;;9.10;99.90;;;;;;5054080;28;20033;-65
2022/01/17 11:40:42;;;;;;;47.88;7.57;;;9.20;99.90;;;;;;5047044;28;20072;-66
2022/01/17 11:43:36;;;;;;;69.53;9.35;;;9.10;99.90;;;;;;5064192;28;20118;-66
2022/01/17 11:46:22;;;;;;;52.67;8.35;;;9.10;99.90;;;;;;5045638;28;20049;-67
2022/01/17 11:49:08;;;;;;;67.07;9.02;;;9.10;99.90;;;;;;5045001;28;20042;-65
2022/01/17 11:51:48;;;;;;;57.75;9.68;;;9.20;99.90;;;;;;5049515;28;20331;-66
2022/01/17 11:54:15;;;;;;;63.33;8.35;;;9.10;99.90;;;;;;5053425;28;20059;-66
2022/01/17 11:57:03;;;;;;;59.03;8.30;;;9.10;99.90;;;;;;5044436;28;20487;-66
2022/01/17 11:59:48;;;;;;;68.75;9.48;;;9.10;99.90;;;;;;5052947;28;20052;-65
2022/01/17 12:02:18;;;;;;;56.90;7.70;;;9.20;99.90;;;;;;5052793;28;20041;-65
2022/01/17 12:05:07;;;;;;;51.97;7.25;;;9.20;99.90;;;;;;5052067;28;20044;-66
2022/01/17 12:07:44;;;;;;;57.78;8.77;;;9.20;99.90;;;;;;5045441;28;20055;-66
2022/01/17 12:10:14;;;;;;;57.90;9.07;;;9.20;99.90;;;;;;5053610;28;20041;-66
2022/01/17 12:12:40;;;;;;;56.67;8.18;;;9.20;99.90;;;;;;5052398;28;20132;-66
2022/01/17 12:15:13;;;;;;;44.67;6.18;;;9.20;99.90;;;;;;5054857;28;20120;-66
2022/01/17 12:17:39;;;;;;;64.07;7.85;;;9.20;99.90;;;;;;5051322;28;20398;-66
2022/01/17 12:20:04;;;;;;;63.92;9.57;;;9.20;99.90;;;;;;5052616;28;20055;-66
2022/01/17 12:22:31;;;;;;;56.85;8.70;;;9.20;99.90;;;;;;5031272;28;20057;-66
2022/01/17 12:25:00;;;;;;;45.20;8.27;;;9.20;99.90;;;;;;5046678;28;20036;-66
2022/01/17 12:27:27;;;;;;;46.25;7.90;;;9.20;99.90;;;;;;5057520;28;20090;-66
2022/01/17 12:30:09;;;;;;;49.83;8.73;;;9.20;99.90;;;;;;5048077;28;20061;-66
2022/01/17 12:32:36;;;;;;;37.03;7.68;;;9.20;99.90;;;;;;5040173;28;20064;-66
2022/01/17 12:35:04;;;;;;;52.60;8.18;;;9.20;99.90;;;;;;5052926;28;20128;-66
2022/01/17 12:37:44;;;;;;;38.22;6.97;;;9.10;99.90;;;;;;5052283;28;21739;-66
2022/01/17 12:40:12;;;;;;;52.78;9.23;;;9.10;99.90;;;;;;5050149;28;20119;-65
2022/01/17 12:43:04;;;;;;;61.15;8.52;;;9.10;99.90;;;;;;5052280;28;20041;-66
2022/01/17 12:46:01;;;;;;;54.10;7.43;;;9.10;99.90;;;;;;5046242;28;20072;-66
2022/01/17 12:48:28;;;;;;;55.50;9.30;;;9.10;99.90;;;;;;5046466;28;20398;-64
2022/01/17 12:50:55;;;;;;;51.15;8.40;;;9.10;99.90;;;;;;5050136;28;20514;-65
2022/01/17 12:53:23;;;;;;;60.08;8.57;;;9.10;99.90;;;;;;5026452;28;20498;-65
2022/01/17 12:55:50;;;;;;;47.92;8.82;;;9.10;99.90;;;;;;5051392;28;20044;-65
2022/01/17 12:58:16;;;;;;;44.80;7.35;;;9.10;99.90;;;;;;5052711;28;20077;-65
2022/01/17 13:01:06;;;;;;;49.30;7.95;;;9.10;99.90;;;;;;5051817;28;20513;-65
2022/01/17 13:03:35;;;;;;;63.92;8.82;;;9.20;99.90;;;;;;5052788;28;20052;-64
2022/01/17 13:06:04;;;;;;;51.00;9.02;;;9.20;99.90;;;;;;5050525;28;20083;-65
2022/01/17 13:08:30;;;;;;;55.58;8.77;;;9.20;99.90;;;;;;5052491;28;20127;-64
2022/01/17 13:10:56;;;;;;;45.20;8.27;;;9.20;99.90;;;;;;5049294;28;20465;-66
2022/01/17 13:13:23;;;;;;;49.00;6.70;;;9.30;99.90;;;;;;5051718;28;20499;-66
2022/01/17 13:15:58;;;;;;;49.30;7.28;;;9.30;99.90;;;;;;5052990;28;20072;-66
2022/01/17 13:18:25;;;;;;;51.90;7.95;;;9.30;99.90;;;;;;5049770;28;20056;-66
2022/01/17 13:20:50;;;;;;;47.42;8.05;;;9.20;99.90;;;;;;5051087;28;20040;-66
2022/01/17 13:23:25;;;;;;;42.28;6.95;;;9.20;99.90;;;;;;5052210;28;20494;-66